sensor_id;sensor_type;location;lat;lon;timestamp;temperature;humidity
69225;DHT22;56333;51.306;17.056;2022-07-19T00:00:39;18.70;55.45
69225;DHT22;56333;51.306;17.056;2022-07-19T00:02:22;18.68;56.53
69225;DHT22;56333;51.306;17.056;2022-07-19T00:03:50;18.65;55.92
69225;DHT22;56333;51.306;17.056;2022-07-19T00:05:17;18.63;55.97
69225;DHT22;56333;51.306;17.056;2022-07-19T00:06:42;18.60;54.60
69225;DHT22;56333;51.306;17.056;2022-07-19T00:08:26;18.58;56.35
69225;DHT22;56333;51.306;17.056;2022-07-19T00:09:50;18.56;57.50
69225;DHT22;56333;51.306;17.056;2022-07-19T00:11:32;18.54;56.47
69225;DHT22;56333;51.306;17.056;2022-07-19T00:12:57;18.51;58.90
69225;DHT22;56333;51.306;17.056;2022-07-19T00:14:22;18.50;56.92
69225;DHT22;56333;51.306;17.056;2022-07-19T00:15:49;18.50;56.10
69225;DHT22;56333;51.306;17.056;2022-07-19T00:17:17;18.48;58.17
69225;DHT22;56333;51.306;17.056;2022-07-19T00:18:45;18.46;55.90
69225;DHT22;56333;51.306;17.056;2022-07-19T00:20:13;18.46;58.15
69225;DHT22;56333;51.306;17.056;2022-07-19T00:21:41;18.45;56.47
69225;DHT22;56333;51.306;17.056;2022-07-19T00:23:08;18.42;56.10
69225;DHT22;56333;51.306;17.056;2022-07-19T00:24:32;18.41;55.38
69225;DHT22;56333;51.306;17.056;2022-07-19T00:25:57;18.39;56.13
69225;DHT22;56333;51.306;17.056;2022-07-19T00:27:21;18.36;55.20
69225;DHT22;56333;51.306;17.056;2022-07-19T00:28:46;18.32;55.60
69225;DHT22;56333;51.306;17.056;2022-07-19T00:30:25;18.27;56.13
69225;DHT22;56333;51.306;17.056;2022-07-19T00:31:50;18.25;56.03
69225;DHT22;56333;51.306;17.056;2022-07-19T00:33:32;18.21;56.60
69225;DHT22;56333;51.306;17.056;2022-07-19T00:34:57;18.19;56.00
69225;DHT22;56333;51.306;17.056;2022-07-19T00:36:24;18.16;58.05
69225;DHT22;56333;51.306;17.056;2022-07-19T00:37:48;18.13;56.92
69225;DHT22;56333;51.306;17.056;2022-07-19T00:39:16;18.12;56.78
69225;DHT22;56333;51.306;17.056;2022-07-19T00:40:41;18.10;57.33
69225;DHT22;56333;51.306;17.056;2022-07-19T00:42:09;18.10;57.95
69225;DHT22;56333;51.306;17.056;2022-07-19T00:43:51;18.08;60.05
69225;DHT22;56333;51.306;17.056;2022-07-19T00:45:19;18.08;59.17
69225;DHT22;56333;51.306;17.056;2022-07-19T00:46:47;18.07;60.05
69225;DHT22;56333;51.306;17.056;2022-07-19T00:48:15;18.06;57.88
69225;DHT22;56333;51.306;17.056;2022-07-19T00:49:42;18.06;57.13
69225;DHT22;56333;51.306;17.056;2022-07-19T00:51:09;18.05;57.67
69225;DHT22;56333;51.306;17.056;2022-07-19T00:52:52;18.03;57.72
69225;DHT22;56333;51.306;17.056;2022-07-19T00:54:25;17.98;58.28
69225;DHT22;56333;51.306;17.056;2022-07-19T00:56:08;17.94;58.72
69225;DHT22;56333;51.306;17.056;2022-07-19T00:57:37;17.93;57.85
69225;DHT22;56333;51.306;17.056;2022-07-19T00:59:04;17.92;57.00
69225;DHT22;56333;51.306;17.056;2022-07-19T01:00:46;17.90;56.65
69225;DHT22;56333;51.306;17.056;2022-07-19T01:02:13;17.90;57.28
69225;DHT22;56333;51.306;17.056;2022-07-19T01:03:40;17.87;57.00
69225;DHT22;56333;51.306;17.056;2022-07-19T01:05:09;17.87;57.03
69225;DHT22;56333;51.306;17.056;2022-07-19T01:06:36;17.88;56.97
69225;DHT22;56333;51.306;17.056;2022-07-19T01:08:18;17.86;56.63
69225;DHT22;56333;51.306;17.056;2022-07-19T01:09:45;17.87;57.03
69225;DHT22;56333;51.306;17.056;2022-07-19T01:11:13;17.87;58.00
69225;DHT22;56333;51.306;17.056;2022-07-19T01:13:08;17.88;58.13
69225;DHT22;56333;51.306;17.056;2022-07-19T01:14:37;17.86;56.33
69225;DHT22;56333;51.306;17.056;2022-07-19T01:16:05;17.86;56.30
69225;DHT22;56333;51.306;17.056;2022-07-19T01:17:32;17.83;56.13
69225;DHT22;56333;51.306;17.056;2022-07-19T01:18:59;17.81;56.75
69225;DHT22;56333;51.306;17.056;2022-07-19T01:20:41;17.79;57.72
69225;DHT22;56333;51.306;17.056;2022-07-19T01:22:23;17.78;56.78
69225;DHT22;56333;51.306;17.056;2022-07-19T01:25:47;17.75;56.53
69225;DHT22;56333;51.306;17.056;2022-07-19T01:27:28;17.74;55.58
69225;DHT22;56333;51.306;17.056;2022-07-19T01:29:25;17.71;57.05
69225;DHT22;56333;51.306;17.056;2022-07-19T01:30:52;17.72;57.60
69225;DHT22;56333;51.306;17.056;2022-07-19T01:32:19;17.69;57.63
69225;DHT22;56333;51.306;17.056;2022-07-19T01:33:46;17.69;57.95
69225;DHT22;56333;51.306;17.056;2022-07-19T01:35:13;17.70;58.47
69225;DHT22;56333;51.306;17.056;2022-07-19T01:36:41;17.68;58.00
69225;DHT22;56333;51.306;17.056;2022-07-19T01:38:08;17.68;57.92
69225;DHT22;56333;51.306;17.056;2022-07-19T01:39:36;17.68;58.75
69225;DHT22;56333;51.306;17.056;2022-07-19T01:41:03;17.67;57.72
69225;DHT22;56333;51.306;17.056;2022-07-19T01:42:45;17.66;56.85
69225;DHT22;56333;51.306;17.056;2022-07-19T01:44:28;17.64;57.17
69225;DHT22;56333;51.306;17.056;2022-07-19T01:45:55;17.63;57.38
69225;DHT22;56333;51.306;17.056;2022-07-19T01:47:23;17.65;57.58
69225;DHT22;56333;51.306;17.056;2022-07-19T01:48:50;17.66;57.05
69225;DHT22;56333;51.306;17.056;2022-07-19T01:50:18;17.67;58.45
69225;DHT22;56333;51.306;17.056;2022-07-19T01:51:46;17.69;57.63
69225;DHT22;56333;51.306;17.056;2022-07-19T01:53:13;17.71;57.00
69225;DHT22;56333;51.306;17.056;2022-07-19T01:54:40;17.74;56.92
69225;DHT22;56333;51.306;17.056;2022-07-19T01:56:13;17.77;55.85
69225;DHT22;56333;51.306;17.056;2022-07-19T01:57:40;17.79;56.40
69225;DHT22;56333;51.306;17.056;2022-07-19T01:59:07;17.82;56.28
69225;DHT22;56333;51.306;17.056;2022-07-19T02:00:48;17.87;56.50
69225;DHT22;56333;51.306;17.056;2022-07-19T02:02:30;17.89;57.67
69225;DHT22;56333;51.306;17.056;2022-07-19T02:03:57;17.93;56.20
69225;DHT22;56333;51.306;17.056;2022-07-19T02:05:24;17.96;56.63
69225;DHT22;56333;51.306;17.056;2022-07-19T02:06:51;17.99;56.55
69225;DHT22;56333;51.306;17.056;2022-07-19T02:08:18;18.01;56.95
69225;DHT22;56333;51.306;17.056;2022-07-19T02:09:46;18.04;57.10
69225;DHT22;56333;51.306;17.056;2022-07-19T02:11:30;18.06;57.45
69225;DHT22;56333;51.306;17.056;2022-07-19T02:13:40;18.08;56.88
69225;DHT22;56333;51.306;17.056;2022-07-19T02:15:21;18.12;54.90
69225;DHT22;56333;51.306;17.056;2022-07-19T02:17:02;18.16;56.08
69225;DHT22;56333;51.306;17.056;2022-07-19T02:18:32;18.20;56.15
69225;DHT22;56333;51.306;17.056;2022-07-19T02:19:59;18.25;56.42
69225;DHT22;56333;51.306;17.056;2022-07-19T02:21:41;18.27;56.97
69225;DHT22;56333;51.306;17.056;2022-07-19T02:23:08;18.30;56.72
69225;DHT22;56333;51.306;17.056;2022-07-19T02:24:36;18.32;56.90
69225;DHT22;56333;51.306;17.056;2022-07-19T02:26:03;18.33;55.90
69225;DHT22;56333;51.306;17.056;2022-07-19T02:27:30;18.38;56.38
69225;DHT22;56333;51.306;17.056;2022-07-19T02:28:57;18.39;57.03
69225;DHT22;56333;51.306;17.056;2022-07-19T02:30:25;18.41;55.60
69225;DHT22;56333;51.306;17.056;2022-07-19T02:31:53;18.42;55.53
69225;DHT22;56333;51.306;17.056;2022-07-19T02:38:53;18.53;56.58
69225;DHT22;56333;51.306;17.056;2022-07-19T02:40:34;18.54;56.40
69225;DHT22;56333;51.306;17.056;2022-07-19T02:43:56;18.61;56.38
69225;DHT22;56333;51.306;17.056;2022-07-19T02:45:24;18.61;56.63
69225;DHT22;56333;51.306;17.056;2022-07-19T02:46:50;18.65;57.03
69225;DHT22;56333;51.306;17.056;2022-07-19T02:48:18;18.66;56.72
69225;DHT22;56333;51.306;17.056;2022-07-19T02:49:50;18.68;56.95
69225;DHT22;56333;51.306;17.056;2022-07-19T02:51:17;18.68;56.47
69225;DHT22;56333;51.306;17.056;2022-07-19T02:52:44;18.69;56.83
69225;DHT22;56333;51.306;17.056;2022-07-19T02:54:11;18.70;56.17
69225;DHT22;56333;51.306;17.056;2022-07-19T02:55:52;18.70;56.17
69225;DHT22;56333;51.306;17.056;2022-07-19T02:59:30;18.71;56.17
69225;DHT22;56333;51.306;17.056;2022-07-19T03:00:57;18.72;55.90
69225;DHT22;56333;51.306;17.056;2022-07-19T03:02:24;18.71;54.80
69225;DHT22;56333;51.306;17.056;2022-07-19T03:03:51;18.73;54.60
69225;DHT22;56333;51.306;17.056;2022-07-19T03:05:19;18.71;54.92
69225;DHT22;56333;51.306;17.056;2022-07-19T03:06:45;18.72;55.45
69225;DHT22;56333;51.306;17.056;2022-07-19T03:08:13;18.72;55.83
69225;DHT22;56333;51.306;17.056;2022-07-19T03:09:40;18.72;55.72
69225;DHT22;56333;51.306;17.056;2022-07-19T03:11:07;18.74;55.13
69225;DHT22;56333;51.306;17.056;2022-07-19T03:12:34;18.74;55.03
69225;DHT22;56333;51.306;17.056;2022-07-19T03:14:02;18.77;55.00
69225;DHT22;56333;51.306;17.056;2022-07-19T03:15:29;18.80;55.13
69225;DHT22;56333;51.306;17.056;2022-07-19T03:16:56;18.82;54.47
69225;DHT22;56333;51.306;17.056;2022-07-19T03:18:24;18.83;55.35
69225;DHT22;56333;51.306;17.056;2022-07-19T03:19:51;18.86;54.88
69225;DHT22;56333;51.306;17.056;2022-07-19T03:21:19;18.87;54.80
69225;DHT22;56333;51.306;17.056;2022-07-19T03:22:46;18.89;54.65
69225;DHT22;56333;51.306;17.056;2022-07-19T03:24:13;18.89;54.78
69225;DHT22;56333;51.306;17.056;2022-07-19T03:27:21;18.91;54.63
69225;DHT22;56333;51.306;17.056;2022-07-19T03:28:48;18.92;54.60
69225;DHT22;56333;51.306;17.056;2022-07-19T03:32:26;18.94;54.38
69225;DHT22;56333;51.306;17.056;2022-07-19T03:33:53;18.95;54.25
69225;DHT22;56333;51.306;17.056;2022-07-19T03:35:21;18.93;54.65
69225;DHT22;56333;51.306;17.056;2022-07-19T03:36:48;18.94;54.40
69225;DHT22;56333;51.306;17.056;2022-07-19T03:38:12;18.94;54.50
69225;DHT22;56333;51.306;17.056;2022-07-19T03:39:55;18.95;54.42
69225;DHT22;56333;51.306;17.056;2022-07-19T03:41:22;18.96;54.50
69225;DHT22;56333;51.306;17.056;2022-07-19T03:42:49;18.97;54.35
69225;DHT22;56333;51.306;17.056;2022-07-19T03:44:16;18.97;54.17
69225;DHT22;56333;51.306;17.056;2022-07-19T03:46:11;18.98;54.80
69225;DHT22;56333;51.306;17.056;2022-07-19T03:47:38;18.98;54.80
69225;DHT22;56333;51.306;17.056;2022-07-19T03:49:06;19.00;54.97
69225;DHT22;56333;51.306;17.056;2022-07-19T03:50:47;19.00;54.92
69225;DHT22;56333;51.306;17.056;2022-07-19T03:52:29;19.01;54.47
69225;DHT22;56333;51.306;17.056;2022-07-19T03:53:57;19.01;55.92
69225;DHT22;56333;51.306;17.056;2022-07-19T03:55:39;19.02;55.10
69225;DHT22;56333;51.306;17.056;2022-07-19T03:57:21;19.03;54.83
69225;DHT22;56333;51.306;17.056;2022-07-19T03:58:48;19.05;54.95
69225;DHT22;56333;51.306;17.056;2022-07-19T04:00:17;19.05;54.83
69225;DHT22;56333;51.306;17.056;2022-07-19T04:01:44;19.07;55.42
69225;DHT22;56333;51.306;17.056;2022-07-19T04:03:11;19.08;54.90
69225;DHT22;56333;51.306;17.056;2022-07-19T04:04:53;19.09;54.67
69225;DHT22;56333;51.306;17.056;2022-07-19T04:06:20;19.10;54.88
69225;DHT22;56333;51.306;17.056;2022-07-19T04:07:48;19.13;55.60
69225;DHT22;56333;51.306;17.056;2022-07-19T04:09:29;19.15;54.85
69225;DHT22;56333;51.306;17.056;2022-07-19T04:10:56;19.16;54.53
69225;DHT22;56333;51.306;17.056;2022-07-19T04:12:23;19.18;54.85
69225;DHT22;56333;51.306;17.056;2022-07-19T04:13:50;19.18;54.63
69225;DHT22;56333;51.306;17.056;2022-07-19T04:15:18;19.20;54.70
69225;DHT22;56333;51.306;17.056;2022-07-19T04:16:44;19.22;54.33
69225;DHT22;56333;51.306;17.056;2022-07-19T04:18:12;19.22;54.67
69225;DHT22;56333;51.306;17.056;2022-07-19T04:19:53;19.22;54.85
69225;DHT22;56333;51.306;17.056;2022-07-19T04:21:20;19.23;54.58
69225;DHT22;56333;51.306;17.056;2022-07-19T04:22:47;19.23;55.85
69225;DHT22;56333;51.306;17.056;2022-07-19T04:24:14;19.19;56.63
69225;DHT22;56333;51.306;17.056;2022-07-19T04:25:42;19.19;56.58
69225;DHT22;56333;51.306;17.056;2022-07-19T04:27:09;19.21;55.42
69225;DHT22;56333;51.306;17.056;2022-07-19T04:28:36;19.21;55.00
69225;DHT22;56333;51.306;17.056;2022-07-19T04:30:05;19.22;54.67
69225;DHT22;56333;51.306;17.056;2022-07-19T04:31:33;19.23;54.45
69225;DHT22;56333;51.306;17.056;2022-07-19T04:33:00;19.24;54.72
69225;DHT22;56333;51.306;17.056;2022-07-19T04:34:27;19.24;55.03
69225;DHT22;56333;51.306;17.056;2022-07-19T04:37:36;19.24;56.47
69225;DHT22;56333;51.306;17.056;2022-07-19T04:39:04;19.26;55.47
69225;DHT22;56333;51.306;17.056;2022-07-19T04:40:31;19.28;55.00
69225;DHT22;56333;51.306;17.056;2022-07-19T04:41:58;19.30;56.50
69225;DHT22;56333;51.306;17.056;2022-07-19T04:43:25;19.34;55.33
69225;DHT22;56333;51.306;17.056;2022-07-19T04:44:52;19.38;55.92
69225;DHT22;56333;51.306;17.056;2022-07-19T04:46:20;19.42;55.15
69225;DHT22;56333;51.306;17.056;2022-07-19T04:48:02;19.46;56.00
69225;DHT22;56333;51.306;17.056;2022-07-19T04:49:31;19.52;56.00
69225;DHT22;56333;51.306;17.056;2022-07-19T04:51:13;19.57;56.45
69225;DHT22;56333;51.306;17.056;2022-07-19T04:52:42;19.62;56.15
69225;DHT22;56333;51.306;17.056;2022-07-19T04:54:09;19.67;55.47
69225;DHT22;56333;51.306;17.056;2022-07-19T04:55:37;19.72;55.38
69225;DHT22;56333;51.306;17.056;2022-07-19T04:57:07;19.75;55.67
69225;DHT22;56333;51.306;17.056;2022-07-19T04:58:35;19.78;55.15
69225;DHT22;56333;51.306;17.056;2022-07-19T05:00:02;19.81;54.78
69225;DHT22;56333;51.306;17.056;2022-07-19T05:01:59;19.83;54.85
69225;DHT22;56333;51.306;17.056;2022-07-19T05:03:27;19.85;55.13
69225;DHT22;56333;51.306;17.056;2022-07-19T05:04:54;19.87;55.58
69225;DHT22;56333;51.306;17.056;2022-07-19T05:06:21;19.89;56.13
69225;DHT22;56333;51.306;17.056;2022-07-19T05:08:18;19.92;56.42
69225;DHT22;56333;51.306;17.056;2022-07-19T05:09:45;19.94;57.92
69225;DHT22;56333;51.306;17.056;2022-07-19T05:11:26;19.94;56.97
69225;DHT22;56333;51.306;17.056;2022-07-19T05:12:54;19.99;55.97
69225;DHT22;56333;51.306;17.056;2022-07-19T05:14:35;20.01;56.13
69225;DHT22;56333;51.306;17.056;2022-07-19T05:16:02;20.02;55.67
69225;DHT22;56333;51.306;17.056;2022-07-19T05:17:31;20.04;56.38
69225;DHT22;56333;51.306;17.056;2022-07-19T05:18:59;20.05;57.05
69225;DHT22;56333;51.306;17.056;2022-07-19T05:20:26;20.07;56.50
69225;DHT22;56333;51.306;17.056;2022-07-19T05:21:53;20.08;55.38
69225;DHT22;56333;51.306;17.056;2022-07-19T05:23:21;20.07;57.03
69225;DHT22;56333;51.306;17.056;2022-07-19T05:24:48;20.08;55.65
69225;DHT22;56333;51.306;17.056;2022-07-19T05:26:15;20.06;55.63
69225;DHT22;56333;51.306;17.056;2022-07-19T05:28:00;20.07;55.85
69225;DHT22;56333;51.306;17.056;2022-07-19T05:29:41;20.05;55.92
69225;DHT22;56333;51.306;17.056;2022-07-19T05:31:08;20.03;55.63
69225;DHT22;56333;51.306;17.056;2022-07-19T05:32:36;20.03;55.83
69225;DHT22;56333;51.306;17.056;2022-07-19T05:34:03;20.03;55.47
69225;DHT22;56333;51.306;17.056;2022-07-19T05:35:30;20.02;55.75
69225;DHT22;56333;51.306;17.056;2022-07-19T05:36:58;20.02;55.28
69225;DHT22;56333;51.306;17.056;2022-07-19T05:38:25;20.02;55.42
69225;DHT22;56333;51.306;17.056;2022-07-19T05:40:06;20.02;55.53
69225;DHT22;56333;51.306;17.056;2022-07-19T05:41:37;20.04;55.15
69225;DHT22;56333;51.306;17.056;2022-07-19T05:43:04;20.05;55.75
69225;DHT22;56333;51.306;17.056;2022-07-19T05:44:33;20.09;55.50
69225;DHT22;56333;51.306;17.056;2022-07-19T05:45:58;20.14;55.33
69225;DHT22;56333;51.306;17.056;2022-07-19T05:47:42;20.20;55.22
69225;DHT22;56333;51.306;17.056;2022-07-19T05:51:19;20.33;54.70
69225;DHT22;56333;51.306;17.056;2022-07-19T05:53:00;20.38;54.60
69225;DHT22;56333;51.306;17.056;2022-07-19T05:54:27;20.44;54.83
69225;DHT22;56333;51.306;17.056;2022-07-19T05:55:55;20.50;54.70
69225;DHT22;56333;51.306;17.056;2022-07-19T05:59:18;20.66;54.80
69225;DHT22;56333;51.306;17.056;2022-07-19T06:01:14;20.75;54.38
69225;DHT22;56333;51.306;17.056;2022-07-19T06:02:44;20.82;53.95
69225;DHT22;56333;51.306;17.056;2022-07-19T06:04:11;20.88;53.92
69225;DHT22;56333;51.306;17.056;2022-07-19T06:07:19;21.01;53.20
69225;DHT22;56333;51.306;17.056;2022-07-19T06:08:47;21.06;53.00
69225;DHT22;56333;51.306;17.056;2022-07-19T06:10:14;21.11;52.92
69225;DHT22;56333;51.306;17.056;2022-07-19T06:11:41;21.20;52.70
69225;DHT22;56333;51.306;17.056;2022-07-19T06:13:09;21.26;52.58
69225;DHT22;56333;51.306;17.056;2022-07-19T06:14:36;21.34;52.42
69225;DHT22;56333;51.306;17.056;2022-07-19T06:16:04;21.40;52.70
69225;DHT22;56333;51.306;17.056;2022-07-19T06:17:32;21.44;52.67
69225;DHT22;56333;51.306;17.056;2022-07-19T06:18:59;21.49;52.45
69225;DHT22;56333;51.306;17.056;2022-07-19T06:20:40;21.55;52.42
69225;DHT22;56333;51.306;17.056;2022-07-19T06:22:07;21.62;52.28
69225;DHT22;56333;51.306;17.056;2022-07-19T06:25:17;21.80;52.05
69225;DHT22;56333;51.306;17.056;2022-07-19T06:26:44;21.89;52.00
69225;DHT22;56333;51.306;17.056;2022-07-19T06:30:35;22.10;50.60
69225;DHT22;56333;51.306;17.056;2022-07-19T06:32:17;22.18;50.45
69225;DHT22;56333;51.306;17.056;2022-07-19T06:33:45;22.25;50.88
69225;DHT22;56333;51.306;17.056;2022-07-19T06:35:14;22.32;50.25
69225;DHT22;56333;51.306;17.056;2022-07-19T06:36:41;22.40;50.25
69225;DHT22;56333;51.306;17.056;2022-07-19T06:38:09;22.44;50.15
69225;DHT22;56333;51.306;17.056;2022-07-19T06:39:37;22.54;50.15
69225;DHT22;56333;51.306;17.056;2022-07-19T06:41:02;22.59;49.15
69225;DHT22;56333;51.306;17.056;2022-07-19T06:42:27;22.65;48.88
69225;DHT22;56333;51.306;17.056;2022-07-19T06:43:55;22.73;48.78
69225;DHT22;56333;51.306;17.056;2022-07-19T06:47:17;22.95;48.13
69225;DHT22;56333;51.306;17.056;2022-07-19T06:48:48;23.04;47.55
69225;DHT22;56333;51.306;17.056;2022-07-19T06:50:30;23.12;47.28
69225;DHT22;56333;51.306;17.056;2022-07-19T06:51:58;23.21;46.97
69225;DHT22;56333;51.306;17.056;2022-07-19T06:53:26;23.31;48.03
69225;DHT22;56333;51.306;17.056;2022-07-19T06:54:53;23.41;47.47
69225;DHT22;56333;51.306;17.056;2022-07-19T06:56:20;23.48;47.45
69225;DHT22;56333;51.306;17.056;2022-07-19T06:58:02;23.58;47.13
69225;DHT22;56333;51.306;17.056;2022-07-19T06:59:58;23.68;46.92
69225;DHT22;56333;51.306;17.056;2022-07-19T07:01:26;23.79;46.80
69225;DHT22;56333;51.306;17.056;2022-07-19T07:02:51;23.89;46.38
69225;DHT22;56333;51.306;17.056;2022-07-19T07:04:33;24.05;45.30
69225;DHT22;56333;51.306;17.056;2022-07-19T07:06:14;24.19;45.13
69225;DHT22;56333;51.306;17.056;2022-07-19T07:07:42;24.30;45.00
69225;DHT22;56333;51.306;17.056;2022-07-19T07:09:07;24.39;45.65
69225;DHT22;56333;51.306;17.056;2022-07-19T07:10:34;24.49;44.45
69225;DHT22;56333;51.306;17.056;2022-07-19T07:12:01;24.58;44.03
69225;DHT22;56333;51.306;17.056;2022-07-19T07:13:29;24.67;45.50
69225;DHT22;56333;51.306;17.056;2022-07-19T07:16:49;24.91;45.72
69225;DHT22;56333;51.306;17.056;2022-07-19T07:18:17;25.03;44.97
69225;DHT22;56333;51.306;17.056;2022-07-19T07:19:44;25.15;45.42
69225;DHT22;56333;51.306;17.056;2022-07-19T07:21:11;25.25;44.88
69225;DHT22;56333;51.306;17.056;2022-07-19T07:22:39;25.33;44.10
69225;DHT22;56333;51.306;17.056;2022-07-19T07:24:19;25.41;44.05
69225;DHT22;56333;51.306;17.056;2022-07-19T07:25:46;25.56;44.05
69225;DHT22;56333;51.306;17.056;2022-07-19T07:27:14;25.68;42.08
69225;DHT22;56333;51.306;17.056;2022-07-19T07:28:41;25.82;44.15
69225;DHT22;56333;51.306;17.056;2022-07-19T07:30:09;25.90;41.97
69225;DHT22;56333;51.306;17.056;2022-07-19T07:31:36;26.02;39.88
69225;DHT22;56333;51.306;17.056;2022-07-19T07:34:45;26.21;39.38
69225;DHT22;56333;51.306;17.056;2022-07-19T07:36:10;26.32;40.03
69225;DHT22;56333;51.306;17.056;2022-07-19T07:37:39;26.43;38.33
69225;DHT22;56333;51.306;17.056;2022-07-19T07:39:03;26.53;37.70
69225;DHT22;56333;51.306;17.056;2022-07-19T07:40:30;26.64;38.13
69225;DHT22;56333;51.306;17.056;2022-07-19T07:41:57;26.75;37.15
69225;DHT22;56333;51.306;17.056;2022-07-19T07:43:25;26.80;36.08
69225;DHT22;56333;51.306;17.056;2022-07-19T07:45:06;26.95;37.42
69225;DHT22;56333;51.306;17.056;2022-07-19T07:46:35;27.05;37.92
69225;DHT22;56333;51.306;17.056;2022-07-19T07:48:17;27.19;38.45
69225;DHT22;56333;51.306;17.056;2022-07-19T07:49:44;27.27;37.67
69225;DHT22;56333;51.306;17.056;2022-07-19T07:51:25;27.41;36.67
69225;DHT22;56333;51.306;17.056;2022-07-19T07:52:53;27.57;35.40
69225;DHT22;56333;51.306;17.056;2022-07-19T07:54:20;27.65;33.88
69225;DHT22;56333;51.306;17.056;2022-07-19T07:57:58;27.92;35.08
69225;DHT22;56333;51.306;17.056;2022-07-19T07:59:40;28.03;34.63
69225;DHT22;56333;51.306;17.056;2022-07-19T08:01:19;28.16;34.50
69225;DHT22;56333;51.306;17.056;2022-07-19T08:02:47;28.25;34.85
69225;DHT22;56333;51.306;17.056;2022-07-19T08:04:15;28.33;34.45
69225;DHT22;56333;51.306;17.056;2022-07-19T08:05:43;28.44;34.20
69225;DHT22;56333;51.306;17.056;2022-07-19T08:07:24;28.52;32.92
69225;DHT22;56333;51.306;17.056;2022-07-19T08:08:52;28.60;32.92
69225;DHT22;56333;51.306;17.056;2022-07-19T08:10:19;28.75;34.20
69225;DHT22;56333;51.306;17.056;2022-07-19T08:11:47;28.84;32.75
69225;DHT22;56333;51.306;17.056;2022-07-19T08:13:15;28.91;30.80
69225;DHT22;56333;51.306;17.056;2022-07-19T08:14:56;29.01;33.95
69225;DHT22;56333;51.306;17.056;2022-07-19T08:16:23;29.05;33.63
69225;DHT22;56333;51.306;17.056;2022-07-19T08:19:32;29.09;33.13
69225;DHT22;56333;51.306;17.056;2022-07-19T08:22:54;29.27;32.67
69225;DHT22;56333;51.306;17.056;2022-07-19T08:24:21;29.33;32.97
69225;DHT22;56333;51.306;17.056;2022-07-19T08:26:17;29.43;33.70
69225;DHT22;56333;51.306;17.056;2022-07-19T08:27:59;29.50;33.60
69225;DHT22;56333;51.306;17.056;2022-07-19T08:29:27;29.57;32.75
69225;DHT22;56333;51.306;17.056;2022-07-19T08:30:54;29.59;32.17
69225;DHT22;56333;51.306;17.056;2022-07-19T08:32:21;29.62;32.05
69225;DHT22;56333;51.306;17.056;2022-07-19T08:33:48;29.67;32.28
69225;DHT22;56333;51.306;17.056;2022-07-19T08:35:14;29.70;33.35
69225;DHT22;56333;51.306;17.056;2022-07-19T08:36:56;29.77;33.05
69225;DHT22;56333;51.306;17.056;2022-07-19T08:38:26;29.84;33.03
69225;DHT22;56333;51.306;17.056;2022-07-19T08:39:51;29.87;32.67
69225;DHT22;56333;51.306;17.056;2022-07-19T08:41:18;29.89;31.27
69225;DHT22;56333;51.306;17.056;2022-07-19T08:44:42;29.83;30.67
69225;DHT22;56333;51.306;17.056;2022-07-19T08:46:09;29.83;29.63
69225;DHT22;56333;51.306;17.056;2022-07-19T08:47:37;29.79;29.58
69225;DHT22;56333;51.306;17.056;2022-07-19T08:49:04;29.89;29.60
69225;DHT22;56333;51.306;17.056;2022-07-19T08:50:47;29.99;30.77
69225;DHT22;56333;51.306;17.056;2022-07-19T08:52:29;30.04;30.40
69225;DHT22;56333;51.306;17.056;2022-07-19T08:53:58;30.08;29.67
69225;DHT22;56333;51.306;17.056;2022-07-19T08:55:26;30.17;29.33
69225;DHT22;56333;51.306;17.056;2022-07-19T08:56:55;30.28;31.00
69225;DHT22;56333;51.306;17.056;2022-07-19T08:58:40;30.34;30.02
69225;DHT22;56333;51.306;17.056;2022-07-19T09:00:09;30.41;30.98
69225;DHT22;56333;51.306;17.056;2022-07-19T09:03:16;30.52;30.05
69225;DHT22;56333;51.306;17.056;2022-07-19T09:04:42;30.60;29.73
69225;DHT22;56333;51.306;17.056;2022-07-19T09:06:08;30.65;30.20
69225;DHT22;56333;51.306;17.056;2022-07-19T09:08:17;30.75;31.13
69225;DHT22;56333;51.306;17.056;2022-07-19T09:09:44;30.84;30.88
69225;DHT22;56333;51.306;17.056;2022-07-19T09:11:11;30.85;29.67
69225;DHT22;56333;51.306;17.056;2022-07-19T09:15:10;30.97;29.58
69225;DHT22;56333;51.306;17.056;2022-07-19T09:16:57;31.05;28.80
69225;DHT22;56333;51.306;17.056;2022-07-19T09:18:30;31.15;28.83
69225;DHT22;56333;51.306;17.056;2022-07-19T09:19:58;31.24;27.67
69225;DHT22;56333;51.306;17.056;2022-07-19T09:21:26;31.32;27.83
69225;DHT22;56333;51.306;17.056;2022-07-19T09:23:07;31.50;28.88
69225;DHT22;56333;51.306;17.056;2022-07-19T09:27:17;31.86;28.60
69225;DHT22;56333;51.306;17.056;2022-07-19T09:28:45;31.87;28.02
69225;DHT22;56333;51.306;17.056;2022-07-19T09:30:32;31.96;27.95
69225;DHT22;56333;51.306;17.056;2022-07-19T09:32:18;32.07;27.73
69225;DHT22;56333;51.306;17.056;2022-07-19T09:33:47;32.08;26.70
69225;DHT22;56333;51.306;17.056;2022-07-19T09:35:16;32.23;27.80
69225;DHT22;56333;51.306;17.056;2022-07-19T09:39:05;32.57;29.42
69225;DHT22;56333;51.306;17.056;2022-07-19T09:40:32;32.70;29.10
69225;DHT22;56333;51.306;17.056;2022-07-19T09:42:00;32.88;28.17
69225;DHT22;56333;51.306;17.056;2022-07-19T09:43:53;33.01;27.40
69225;DHT22;56333;51.306;17.056;2022-07-19T09:45:33;33.16;27.92
69225;DHT22;56333;51.306;17.056;2022-07-19T09:46:58;33.16;27.60
69225;DHT22;56333;51.306;17.056;2022-07-19T09:50:20;33.40;27.55
69225;DHT22;56333;51.306;17.056;2022-07-19T09:51:49;33.51;27.08
69225;DHT22;56333;51.306;17.056;2022-07-19T09:53:16;33.53;25.50
69225;DHT22;56333;51.306;17.056;2022-07-19T09:54:42;33.60;26.90
69225;DHT22;56333;51.306;17.056;2022-07-19T09:56:09;33.73;27.08
69225;DHT22;56333;51.306;17.056;2022-07-19T09:57:51;33.71;26.10
69225;DHT22;56333;51.306;17.056;2022-07-19T09:59:16;33.72;27.63
69225;DHT22;56333;51.306;17.056;2022-07-19T10:00:43;33.68;25.67
69225;DHT22;56333;51.306;17.056;2022-07-19T10:02:08;33.72;27.50
69225;DHT22;56333;51.306;17.056;2022-07-19T10:03:38;33.74;26.60
69225;DHT22;56333;51.306;17.056;2022-07-19T10:05:05;33.77;25.80
69225;DHT22;56333;51.306;17.056;2022-07-19T10:06:31;33.82;26.17
69225;DHT22;56333;51.306;17.056;2022-07-19T10:08:00;33.90;26.65
69225;DHT22;56333;51.306;17.056;2022-07-19T10:09:24;33.90;25.33
69225;DHT22;56333;51.306;17.056;2022-07-19T10:10:51;33.92;26.02
69225;DHT22;56333;51.306;17.056;2022-07-19T10:12:20;33.99;26.85
69225;DHT22;56333;51.306;17.056;2022-07-19T10:14:02;34.01;26.35
69225;DHT22;56333;51.306;17.056;2022-07-19T10:17:21;34.10;25.88